sensor_id;sensor_type;location;lat;lon;timestamp;pressure;altitude;pressure_sealevel;temperature;humidity
10646;BME280;5371;49.782;9.932;2022-10-03T00:00:11;100384.31;;;8.69;100.00
10646;BME280;5371;49.782;9.932;2022-10-03T00:03:06;100394.00;;;8.65;100.00
10646;BME280;5371;49.782;9.932;2022-10-03T00:05:46;100395.88;;;8.61;100.00
10646;BME280;5371;49.782;9.932;2022-10-03T00:08:30;100397.75;;;8.58;100.00
10646;BME280;5371;49.782;9.932;2022-10-03T00:11:10;100399.56;;;8.56;100.00
10646;BME280;5371;49.782;9.932;2022-10-03T00:13:49;100402.25;;;8.54;100.00
10646;BME280;5371;49.782;9.932;2022-10-03T00:16:25;100404.97;;;8.51;100.00
10646;BME280;5371;49.782;9.932;2022-10-03T00:19:00;100401.47;;;8.52;100.00
10646;BME280;5371;49.782;9.932;2022-10-03T00:21:39;100407.63;;;8.50;100.00
10646;BME280;5371;49.782;9.932;2022-10-03T00:24:20;100405.06;;;8.48;100.00
10646;BME280;5371;49.782;9.932;2022-10-03T00:26:52;100411.19;;;8.47;100.00
10646;BME280;5371;49.782;9.932;2022-10-03T00:29:39;100411.19;;;8.47;100.00
10646;BME280;5371;49.782;9.932;2022-10-03T00:32:21;100424.00;;;8.53;100.00
10646;BME280;5371;49.782;9.932;2022-10-03T00:35:00;100424.22;;;8.47;100.00
10646;BME280;5371;49.782;9.932;2022-10-03T00:37:35;100425.06;;;8.48;100.00
10646;BME280;5371;49.782;9.932;2022-10-03T00:43:54;100431.25;;;8.45;100.00
10646;BME280;5371;49.782;9.932;2022-10-03T00:50:18;100438.28;;;8.43;100.00
10646;BME280;5371;49.782;9.932;2022-10-03T00:53:05;100434.88;;;8.41;100.00
10646;BME280;5371;49.782;9.932;2022-10-03T00:55:47;100433.22;;;8.39;100.00
10646;BME280;5371;49.782;9.932;2022-10-03T00:58:41;100443.72;;;8.37;100.00
10646;BME280;5371;49.782;9.932;2022-10-03T01:01:22;100449.06;;;8.34;100.00
10646;BME280;5371;49.782;9.932;2022-10-03T01:04:02;100447.56;;;8.27;100.00
10646;BME280;5371;49.782;9.932;2022-10-03T01:06:38;100443.31;;;8.24;100.00
10646;BME280;5371;49.782;9.932;2022-10-03T01:09:29;100449.47;;;8.22;100.00
10646;BME280;5371;49.782;9.932;2022-10-03T01:12:13;100449.59;;;8.19;100.00
10646;BME280;5371;49.782;9.932;2022-10-03T01:15:04;100441.94;;;8.14;100.00
10646;BME280;5371;49.782;9.932;2022-10-03T01:17:39;100431.63;;;8.11;100.00
10646;BME280;5371;49.782;9.932;2022-10-03T01:20:19;100447.16;;;8.14;100.00
10646;BME280;5371;49.782;9.932;2022-10-03T01:23:13;100450.69;;;8.12;100.00
10646;BME280;5371;49.782;9.932;2022-10-03T01:25:51;100450.03;;;8.07;100.00
10646;BME280;5371;49.782;9.932;2022-10-03T01:28:36;100450.13;;;8.04;100.00
10646;BME280;5371;49.782;9.932;2022-10-03T01:31:28;100453.63;;;8.03;100.00
10646;BME280;5371;49.782;9.932;2022-10-03T01:34:00;100455.47;;;8.01;100.00
10646;BME280;5371;49.782;9.932;2022-10-03T01:36:37;100457.38;;;7.96;100.00
10646;BME280;5371;49.782;9.932;2022-10-03T01:39:12;100457.59;;;7.89;100.00
10646;BME280;5371;49.782;9.932;2022-10-03T01:41:49;100456.91;;;7.84;100.00
10646;BME280;5371;49.782;9.932;2022-10-03T01:44:21;100461.47;;;7.78;100.00
10646;BME280;5371;49.782;9.932;2022-10-03T01:46:54;100466.00;;;7.73;100.00
10646;BME280;5371;49.782;9.932;2022-10-03T01:49:29;100472.06;;;7.73;100.00
10646;BME280;5371;49.782;9.932;2022-10-03T01:52:03;100472.16;;;7.70;100.00
10646;BME280;5371;49.782;9.932;2022-10-03T01:54:37;100472.25;;;7.67;100.00
10646;BME280;5371;49.782;9.932;2022-10-03T01:57:12;100476.78;;;7.62;100.00
10646;BME280;5371;49.782;9.932;2022-10-03T01:59:47;100479.25;;;7.65;100.00
10646;BME280;5371;49.782;9.932;2022-10-03T02:02:26;100486.25;;;7.65;100.00
10646;BME280;5371;49.782;9.932;2022-10-03T02:04:59;100487.19;;;7.62;100.00
10646;BME280;5371;49.782;9.932;2022-10-03T02:07:39;100482.03;;;7.61;100.00
10646;BME280;5371;49.782;9.932;2022-10-03T02:10:18;100490.72;;;7.60;100.00
10646;BME280;5371;49.782;9.932;2022-10-03T02:12:57;100487.22;;;7.61;100.00
10646;BME280;5371;49.782;9.932;2022-10-03T02:15:33;100486.47;;;7.57;100.00
10646;BME280;5371;49.782;9.932;2022-10-03T02:18:12;100490.81;;;7.57;100.00
10646;BME280;5371;49.782;9.932;2022-10-03T02:20:46;100491.81;;;7.54;100.00
10646;BME280;5371;49.782;9.932;2022-10-03T02:23:23;100494.44;;;7.53;100.00
10646;BME280;5371;49.782;9.932;2022-10-03T02:25:57;100490.41;;;7.44;100.00
10646;BME280;5371;49.782;9.932;2022-10-03T02:28:55;100493.19;;;7.38;100.00
10646;BME280;5371;49.782;9.932;2022-10-03T02:31:43;100498.47;;;7.36;100.00
10646;BME280;5371;49.782;9.932;2022-10-03T02:34:25;100497.59;;;7.36;100.00
10646;BME280;5371;49.782;9.932;2022-10-03T02:40:19;100503.75;;;7.33;100.00
10646;BME280;5371;49.782;9.932;2022-10-03T02:46:19;100504.69;;;7.31;100.00
10646;BME280;5371;49.782;9.932;2022-10-03T02:52:33;100501.41;;;7.26;100.00
10646;BME280;5371;49.782;9.932;2022-10-03T02:55:33;100505.78;;;7.24;100.00
10646;BME280;5371;49.782;9.932;2022-10-03T02:58:40;100518.88;;;7.21;100.00
10646;BME280;5371;49.782;9.932;2022-10-03T03:04:38;100523.19;;;7.22;100.00
10646;BME280;5371;49.782;9.932;2022-10-03T03:07:43;100510.47;;;7.12;100.00
10646;BME280;5371;49.782;9.932;2022-10-03T03:10:36;100522.59;;;7.13;100.00
10646;BME280;5371;49.782;9.932;2022-10-03T03:13:23;100520.03;;;7.12;100.00
10646;BME280;5371;49.782;9.932;2022-10-03T03:16:29;100520.19;;;7.07;100.00
10646;BME280;5371;49.782;9.932;2022-10-03T03:19:11;100522.97;;;7.01;100.00
10646;BME280;5371;49.782;9.932;2022-10-03T03:21:50;100524.63;;;7.04;100.00
10646;BME280;5371;49.782;9.932;2022-10-03T03:24:39;100523.13;;;6.97;100.00
10646;BME280;5371;49.782;9.932;2022-10-03T03:27:24;100531.97;;;6.91;100.00
10646;BME280;5371;49.782;9.932;2022-10-03T03:29:59;100532.97;;;6.86;100.00
10646;BME280;5371;49.782;9.932;2022-10-03T03:32:39;100535.72;;;6.81;100.00
10646;BME280;5371;49.782;9.932;2022-10-03T03:35:22;100543.69;;;6.75;100.00
10646;BME280;5371;49.782;9.932;2022-10-03T03:38:02;100536.84;;;6.72;100.00
10646;BME280;5371;49.782;9.932;2022-10-03T03:40:39;100540.34;;;6.71;100.00
10646;BME280;5371;49.782;9.932;2022-10-03T03:46:21;100554.34;;;6.66;100.00
10646;BME280;5371;49.782;9.932;2022-10-03T03:49:08;100551.84;;;6.63;100.00
10646;BME280;5371;49.782;9.932;2022-10-03T03:51:52;100549.28;;;6.61;100.00
10646;BME280;5371;49.782;9.932;2022-10-03T03:54:43;100549.41;;;6.57;100.00
10646;BME280;5371;49.782;9.932;2022-10-03T03:57:36;100553.22;;;6.45;100.00
10646;BME280;5371;49.782;9.932;2022-10-03T04:00:13;100557.72;;;6.38;100.00
10646;BME280;5371;49.782;9.932;2022-10-03T04:06:01;100564.78;;;6.33;100.00
10646;BME280;5371;49.782;9.932;2022-10-03T04:08:46;100570.78;;;6.37;100.00
10646;BME280;5371;49.782;9.932;2022-10-03T04:11:34;100571.94;;;6.25;100.00
10646;BME280;5371;49.782;9.932;2022-10-03T04:14:25;100570.44;;;6.17;100.00
10646;BME280;5371;49.782;9.932;2022-10-03T04:17:04;100567.00;;;6.16;100.00
10646;BME280;5371;49.782;9.932;2022-10-03T04:20:04;100573.88;;;6.19;100.00
10646;BME280;5371;49.782;9.932;2022-10-03T04:22:47;100574.78;;;6.16;100.00
10646;BME280;5371;49.782;9.932;2022-10-03T04:25:29;100567.94;;;6.14;100.00
10646;BME280;5371;49.782;9.932;2022-10-03T04:28:33;100569.75;;;6.10;100.00
10646;BME280;5371;49.782;9.932;2022-10-03T04:31:18;100568.91;;;6.10;100.00
10646;BME280;5371;49.782;9.932;2022-10-03T04:34:01;100569.81;;;6.09;100.00
10646;BME280;5371;49.782;9.932;2022-10-03T04:36:55;100567.31;;;6.04;100.00
10646;BME280;5371;49.782;9.932;2022-10-03T04:39:29;100564.75;;;6.03;100.00
10646;BME280;5371;49.782;9.932;2022-10-03T04:42:09;100573.53;;;5.98;100.00
10646;BME280;5371;49.782;9.932;2022-10-03T04:45:00;100571.81;;;5.97;100.00
10646;BME280;5371;49.782;9.932;2022-10-03T04:47:32;100570.91;;;6.00;100.00
10646;BME280;5371;49.782;9.932;2022-10-03T04:50:06;100572.69;;;5.98;100.00
10646;BME280;5371;49.782;9.932;2022-10-03T04:52:49;100580.47;;;5.98;100.00
10646;BME280;5371;49.782;9.932;2022-10-03T04:55:24;100577.09;;;5.94;100.00
10646;BME280;5371;49.782;9.932;2022-10-03T04:57:58;100577.19;;;5.91;100.00
10646;BME280;5371;49.782;9.932;2022-10-03T05:00:37;100577.22;;;5.90;100.00
10646;BME280;5371;49.782;9.932;2022-10-03T05:03:17;100573.78;;;5.89;100.00
10646;BME280;5371;49.782;9.932;2022-10-03T05:05:53;100571.03;;;5.94;100.00
10646;BME280;5371;49.782;9.932;2022-10-03T05:08:35;100579.72;;;5.93;100.00
10646;BME280;5371;49.782;9.932;2022-10-03T05:11:14;100573.78;;;5.89;100.00
10646;BME280;5371;49.782;9.932;2022-10-03T05:13:59;100576.41;;;5.86;100.00
10646;BME280;5371;49.782;9.932;2022-10-03T05:16:38;100579.06;;;5.83;100.00
10646;BME280;5371;49.782;9.932;2022-10-03T05:19:36;100577.41;;;5.81;100.00
10646;BME280;5371;49.782;9.932;2022-10-03T05:22:13;100578.19;;;5.83;100.00
10646;BME280;5371;49.782;9.932;2022-10-03T05:24:49;100584.22;;;5.85;100.00
10646;BME280;5371;49.782;9.932;2022-10-03T05:27:26;100582.44;;;5.87;100.00
10646;BME280;5371;49.782;9.932;2022-10-03T05:30:02;100583.34;;;5.84;100.00
10646;BME280;5371;49.782;9.932;2022-10-03T05:32:38;100593.78;;;5.83;100.00
10646;BME280;5371;49.782;9.932;2022-10-03T05:35:20;100604.97;;;5.85;100.00
10646;BME280;5371;49.782;9.932;2022-10-03T05:38:03;100598.16;;;5.81;100.00
10646;BME280;5371;49.782;9.932;2022-10-03T05:40:36;100604.31;;;5.77;100.00
10646;BME280;5371;49.782;9.932;2022-10-03T05:43:20;100607.91;;;5.71;100.00
10646;BME280;5371;49.782;9.932;2022-10-03T05:45:55;100613.88;;;5.75;100.00
10646;BME280;5371;49.782;9.932;2022-10-03T05:48:46;100614.59;;;5.81;100.00
10646;BME280;5371;49.782;9.932;2022-10-03T05:51:28;100611.13;;;5.81;100.00
10646;BME280;5371;49.782;9.932;2022-10-03T05:54:40;100620.66;;;5.80;100.00
10646;BME280;5371;49.782;9.932;2022-10-03T06:00:20;100623.38;;;5.74;100.00
10646;BME280;5371;49.782;9.932;2022-10-03T06:03:03;100621.75;;;5.72;100.00
10646;BME280;5371;49.782;9.932;2022-10-03T06:05:53;100619.88;;;5.77;100.00
10646;BME280;5371;49.782;9.932;2022-10-03T06:08:45;100619.81;;;5.80;100.00
10646;BME280;5371;49.782;9.932;2022-10-03T06:11:33;100628.25;;;5.89;100.00
10646;BME280;5371;49.782;9.932;2022-10-03T06:14:22;100631.53;;;5.96;100.00
10646;BME280;5371;49.782;9.932;2022-10-03T06:17:02;100633.94;;;6.04;100.00
10646;BME280;5371;49.782;9.932;2022-10-03T06:19:46;100634.56;;;6.13;100.00
10646;BME280;5371;49.782;9.932;2022-10-03T06:25:51;100639.25;;;6.33;100.00
10646;BME280;5371;49.782;9.932;2022-10-03T06:28:59;100642.63;;;6.36;100.00
10646;BME280;5371;49.782;9.932;2022-10-03T06:32:03;100647.06;;;6.31;100.00
10646;BME280;5371;49.782;9.932;2022-10-03T06:34:59;100645.25;;;6.35;100.00
10646;BME280;5371;49.782;9.932;2022-10-03T06:41:12;100649.59;;;6.34;100.00
10646;BME280;5371;49.782;9.932;2022-10-03T06:44:12;100649.06;;;6.54;100.00
10646;BME280;5371;49.782;9.932;2022-10-03T06:47:02;100656.66;;;6.62;100.00
10646;BME280;5371;49.782;9.932;2022-10-03T06:52:53;100664.50;;;6.59;100.00
10646;BME280;5371;49.782;9.932;2022-10-03T06:55:50;100660.78;;;6.69;100.00
10646;BME280;5371;49.782;9.932;2022-10-03T06:58:47;100660.69;;;6.72;100.00
10646;BME280;5371;49.782;9.932;2022-10-03T07:01:47;100663.06;;;6.81;100.00
10646;BME280;5371;49.782;9.932;2022-10-03T07:07:42;100661.56;;;7.02;100.00
10646;BME280;5371;49.782;9.932;2022-10-03T07:10:34;100659.75;;;7.05;100.00
10646;BME280;5371;49.782;9.932;2022-10-03T07:13:27;100657.66;;;7.18;100.00
10646;BME280;5371;49.782;9.932;2022-10-03T07:16:22;100659.63;;;7.38;100.00
10646;BME280;5371;49.782;9.932;2022-10-03T07:22:31;100651.19;;;7.85;100.00
10646;BME280;5371;49.782;9.932;2022-10-03T07:28:30;100660.66;;;8.41;100.00
10646;BME280;5371;49.782;9.932;2022-10-03T07:31:07;100668.38;;;8.69;100.00
10646;BME280;5371;49.782;9.932;2022-10-03T07:33:52;100669.94;;;8.97;100.00
10646;BME280;5371;49.782;9.932;2022-10-03T07:36:30;100670.97;;;9.38;100.00
10646;BME280;5371;49.782;9.932;2022-10-03T07:39:50;100668.75;;;9.95;100.00
10646;BME280;5371;49.782;9.932;2022-10-03T07:45:40;100679.72;;;11.24;100.00
10646;BME280;5371;49.782;9.932;2022-10-03T07:48:36;100684.81;;;11.65;100.00
10646;BME280;5371;49.782;9.932;2022-10-03T07:51:12;100679.44;;;12.21;100.00
10646;BME280;5371;49.782;9.932;2022-10-03T07:57:01;100696.94;;;12.72;100.00
10646;BME280;5371;49.782;9.932;2022-10-03T08:03:07;100708.53;;;12.51;100.00
10646;BME280;5371;49.782;9.932;2022-10-03T08:14:53;100697.63;;;13.42;100.00
10646;BME280;5371;49.782;9.932;2022-10-03T08:20:41;100687.31;;;13.70;100.00
10646;BME280;5371;49.782;9.932;2022-10-03T08:23:25;100690.97;;;14.29;100.00
10646;BME280;5371;49.782;9.932;2022-10-03T08:26:07;100686.50;;;14.89;100.00
10646;BME280;5371;49.782;9.932;2022-10-03T08:28:53;100690.88;;;15.60;100.00
10646;BME280;5371;49.782;9.932;2022-10-03T08:32:10;100693.28;;;16.04;100.00
10646;BME280;5371;49.782;9.932;2022-10-03T08:41:19;100702.00;;;16.31;100.00
10646;BME280;5371;49.782;9.932;2022-10-03T08:44:43;100693.38;;;16.29;100.00
10646;BME280;5371;49.782;9.932;2022-10-03T08:50:42;100701.09;;;16.58;100.00
10646;BME280;5371;49.782;9.932;2022-10-03T08:56:38;100706.25;;;16.99;100.00
10646;BME280;5371;49.782;9.932;2022-10-03T08:59:36;100709.28;;;17.18;100.00
10646;BME280;5371;49.782;9.932;2022-10-03T09:08:38;100710.09;;;17.56;100.00
10646;BME280;5371;49.782;9.932;2022-10-03T09:18:07;100703.38;;;17.27;100.00
10646;BME280;5371;49.782;9.932;2022-10-03T09:24:20;100688.19;;;17.91;95.18
10646;BME280;5371;49.782;9.932;2022-10-03T09:27:27;100692.72;;;18.02;94.92
10646;BME280;5371;49.782;9.932;2022-10-03T09:30:17;100687.25;;;17.92;93.43
10646;BME280;5371;49.782;9.932;2022-10-03T09:39:21;100690.28;;;17.99;90.86
10646;BME280;5371;49.782;9.932;2022-10-03T09:45:25;100695.38;;;18.94;86.22
10646;BME280;5371;49.782;9.932;2022-10-03T09:48:31;100701.28;;;18.16;90.38
10646;BME280;5371;49.782;9.932;2022-10-03T09:51:19;100691.91;;;17.88;91.20
10646;BME280;5371;49.782;9.932;2022-10-03T09:54:24;100691.84;;;17.77;90.19
10646;BME280;5371;49.782;9.932;2022-10-03T10:00:15;100691.72;;;18.26;90.29
10646;BME280;5371;49.782;9.932;2022-10-03T10:03:09;100692.94;;;18.33;88.44
10646;BME280;5371;49.782;9.932;2022-10-03T10:12:37;100684.78;;;18.02;89.00
10646;BME280;5371;49.782;9.932;2022-10-03T10:15:21;100691.22;;;17.74;90.33
10646;BME280;5371;49.782;9.932;2022-10-03T10:21:30;100689.31;;;17.27;92.47
10646;BME280;5371;49.782;9.932;2022-10-03T10:31:15;100682.06;;;17.90;89.48
10646;BME280;5371;49.782;9.932;2022-10-03T10:37:24;100670.84;;;19.91;78.71
10646;BME280;5371;49.782;9.932;2022-10-03T10:40:15;100685.25;;;20.82;73.61
10646;BME280;5371;49.782;9.932;2022-10-03T10:43:29;100671.56;;;21.38;70.62
10646;BME280;5371;49.782;9.932;2022-10-03T10:52:46;100678.16;;;19.44;76.67
10646;BME280;5371;49.782;9.932;2022-10-03T10:55:47;100679.75;;;19.13;76.91
10646;BME280;5371;49.782;9.932;2022-10-03T11:08:35;100680.69;;;17.48;82.27
10646;BME280;5371;49.782;9.932;2022-10-03T11:11:40;100678.28;;;17.45;84.15
10646;BME280;5371;49.782;9.932;2022-10-03T11:15:06;100680.59;;;17.01;84.65
10646;BME280;5371;49.782;9.932;2022-10-03T11:17:59;100687.00;;;16.97;84.25
10646;BME280;5371;49.782;9.932;2022-10-03T11:24:12;100677.91;;;16.75;86.15
10646;BME280;5371;49.782;9.932;2022-10-03T11:27:04;100676.88;;;16.65;86.06
10646;BME280;5371;49.782;9.932;2022-10-03T11:30:05;100675.91;;;16.66;88.67
10646;BME280;5371;49.782;9.932;2022-10-03T11:38:56;100672.66;;;16.63;89.68
10646;BME280;5371;49.782;9.932;2022-10-03T11:41:45;100679.28;;;16.68;87.71
10646;BME280;5371;49.782;9.932;2022-10-03T11:44:19;100679.72;;;16.62;88.51
10646;BME280;5371;49.782;9.932;2022-10-03T11:47:04;100676.50;;;16.57;91.42
10646;BME280;5371;49.782;9.932;2022-10-03T11:49:54;100678.81;;;16.36;92.63
10646;BME280;5371;49.782;9.932;2022-10-03T11:52:29;100675.97;;;16.00;95.10
10646;BME280;5371;49.782;9.932;2022-10-03T11:55:07;100674.03;;;15.89;95.95
10646;BME280;5371;49.782;9.932;2022-10-03T11:57:45;100679.63;;;16.24;92.75
10646;BME280;5371;49.782;9.932;2022-10-03T12:00:20;100672.88;;;16.72;91.54
10646;BME280;5371;49.782;9.932;2022-10-03T12:03:09;100662.09;;;17.63;86.25
10646;BME280;5371;49.782;9.932;2022-10-03T12:05:47;100664.69;;;17.99;81.48
10646;BME280;5371;49.782;9.932;2022-10-03T12:08:26;100655.25;;;17.95;80.66
10646;BME280;5371;49.782;9.932;2022-10-03T12:11:17;100657.06;;;17.94;80.41
10646;BME280;5371;49.782;9.932;2022-10-03T12:13:58;100648.00;;;17.86;78.79
10646;BME280;5371;49.782;9.932;2022-10-03T12:16:33;100649.19;;;18.06;78.81
10646;BME280;5371;49.782;9.932;2022-10-03T12:19:15;100644.31;;;17.52;79.41
10646;BME280;5371;49.782;9.932;2022-10-03T12:21:54;100642.34;;;17.43;80.68
10646;BME280;5371;49.782;9.932;2022-10-03T12:24:24;100645.59;;;17.10;81.37
10646;BME280;5371;49.782;9.932;2022-10-03T12:26:59;100655.03;;;16.89;82.81
10646;BME280;5371;49.782;9.932;2022-10-03T12:29:32;100642.66;;;16.76;81.22
10646;BME280;5371;49.782;9.932;2022-10-03T12:32:12;100642.44;;;16.67;79.96
10646;BME280;5371;49.782;9.932;2022-10-03T12:34:48;100645.91;;;16.55;79.73
10646;BME280;5371;49.782;9.932;2022-10-03T12:37:41;100640.31;;;16.46;80.50
10646;BME280;5371;49.782;9.932;2022-10-03T12:40:16;100639.56;;;16.44;82.01
10646;BME280;5371;49.782;9.932;2022-10-03T12:42:50;100636.94;;;16.44;83.76
10646;BME280;5371;49.782;9.932;2022-10-03T12:45:30;100628.38;;;16.41;83.85
10646;BME280;5371;49.782;9.932;2022-10-03T12:48:20;100629.97;;;16.56;82.83
10646;BME280;5371;49.782;9.932;2022-10-03T12:50:56;100623.72;;;16.57;81.88
10646;BME280;5371;49.782;9.932;2022-10-03T12:53:30;100631.97;;;16.53;80.13
10646;BME280;5371;49.782;9.932;2022-10-03T12:56:13;100630.69;;;16.58;78.79
10646;BME280;5371;49.782;9.932;2022-10-03T12:58:51;100630.47;;;16.48;76.56
10646;BME280;5371;49.782;9.932;2022-10-03T13:01:26;100626.91;;;16.37;76.98
10646;BME280;5371;49.782;9.932;2022-10-03T13:04:00;100633.66;;;16.28;78.69
10646;BME280;5371;49.782;9.932;2022-10-03T13:06:51;100629.63;;;16.35;80.14
10646;BME280;5371;49.782;9.932;2022-10-03T13:09:44;100632.56;;;16.31;81.94
10646;BME280;5371;49.782;9.932;2022-10-03T13:12:26;100635.13;;;16.20;83.64
10646;BME280;5371;49.782;9.932;2022-10-03T13:18:41;100626.66;;;16.15;87.64
10646;BME280;5371;49.782;9.932;2022-10-03T13:21:14;100630.56;;;16.09;87.81
10646;BME280;5371;49.782;9.932;2022-10-03T13:23:48;100619.72;;;15.87;87.01
10646;BME280;5371;49.782;9.932;2022-10-03T13:26:21;100620.22;;;15.79;88.89
10646;BME280;5371;49.782;9.932;2022-10-03T13:29:20;100621.06;;;15.80;89.41
10646;BME280;5371;49.782;9.932;2022-10-03T13:32:03;100615.47;;;15.71;91.16
10646;BME280;5371;49.782;9.932;2022-10-03T13:34:40;100610.22;;;15.57;90.92
10646;BME280;5371;49.782;9.932;2022-10-03T13:37:13;100616.41;;;15.70;90.83
10646;BME280;5371;49.782;9.932;2022-10-03T13:39:47;100614.97;;;15.79;90.31
10646;BME280;5371;49.782;9.932;2022-10-03T13:42:19;100618.53;;;15.78;89.24
10646;BME280;5371;49.782;9.932;2022-10-03T13:44:50;100615.50;;;15.84;89.86
10646;BME280;5371;49.782;9.932;2022-10-03T13:47:27;100618.34;;;15.81;91.05
10646;BME280;5371;49.782;9.932;2022-10-03T13:49:58;100617.09;;;15.87;90.70
10646;BME280;5371;49.782;9.932;2022-10-03T13:52:35;100612.38;;;15.92;90.05
10646;BME280;5371;49.782;9.932;2022-10-03T13:55:19;100613.31;;;16.03;89.91
10646;BME280;5371;49.782;9.932;2022-10-03T13:57:59;100610.63;;;16.18;90.31
10646;BME280;5371;49.782;9.932;2022-10-03T14:00:32;100611.63;;;16.02;89.83
10646;BME280;5371;49.782;9.932;2022-10-03T14:03:16;100608.88;;;15.91;90.15
10646;BME280;5371;49.782;9.932;2022-10-03T14:06:02;100609.13;;;16.01;90.61
10646;BME280;5371;49.782;9.932;2022-10-03T14:08:59;100603.06;;;15.86;90.28
10646;BME280;5371;49.782;9.932;2022-10-03T14:11:41;100595.97;;;15.74;90.28
10646;BME280;5371;49.782;9.932;2022-10-03T14:14:36;100593.81;;;15.66;91.46
10646;BME280;5371;49.782;9.932;2022-10-03T14:17:12;100595.66;;;15.79;92.41
10646;BME280;5371;49.782;9.932;2022-10-03T14:19:52;100601.03;;;16.17;91.95
10646;BME280;5371;49.782;9.932;2022-10-03T14:22:29;100590.91;;;15.71;90.75
10646;BME280;5371;49.782;9.932;2022-10-03T14:25:11;100596.13;;;15.58;92.23
10646;BME280;5371;49.782;9.932;2022-10-03T14:27:51;100587.28;;;15.59;91.33
10646;BME280;5371;49.782;9.932;2022-10-03T14:30:21;100589.81;;;15.61;90.88
10646;BME280;5371;49.782;9.932;2022-10-03T14:33:11;100583.50;;;15.63;91.84
10646;BME280;5371;49.782;9.932;2022-10-03T14:35:51;100580.97;;;15.62;92.45
10646;BME280;5371;49.782;9.932;2022-10-03T14:38:27;100582.00;;;15.59;92.50
10646;BME280;5371;49.782;9.932;2022-10-03T14:41:17;100583.25;;;15.54;92.25
10646;BME280;5371;49.782;9.932;2022-10-03T14:43:48;100588.53;;;15.54;92.62
10646;BME280;5371;49.782;9.932;2022-10-03T14:46:18;100587.69;;;15.66;89.06
10646;BME280;5371;49.782;9.932;2022-10-03T14:48:48;100589.34;;;15.81;88.60
10646;BME280;5371;49.782;9.932;2022-10-03T14:51:20;100586.13;;;16.03;89.33
10646;BME280;5371;49.782;9.932;2022-10-03T14:53:52;100588.88;;;16.14;89.20
10646;BME280;5371;49.782;9.932;2022-10-03T14:56:20;100595.19;;;16.12;87.61
10646;BME280;5371;49.782;9.932;2022-10-03T14:58:52;100579.94;;;16.17;87.66
10646;BME280;5371;49.782;9.932;2022-10-03T15:01:21;100589.06;;;15.98;87.38
10646;BME280;5371;49.782;9.932;2022-10-03T15:03:57;100583.38;;;15.92;87.56
10646;BME280;5371;49.782;9.932;2022-10-03T15:06:33;100589.69;;;15.89;88.09
10646;BME280;5371;49.782;9.932;2022-10-03T15:09:08;100603.38;;;15.82;89.51
10646;BME280;5371;49.782;9.932;2022-10-03T15:11:44;100593.53;;;15.71;91.47
10646;BME280;5371;49.782;9.932;2022-10-03T15:14:14;100592.75;;;15.56;91.82
10646;BME280;5371;49.782;9.932;2022-10-03T15:16:46;100594.78;;;15.51;92.91
10646;BME280;5371;49.782;9.932;2022-10-03T15:19:17;100593.00;;;15.52;94.63
10646;BME280;5371;49.782;9.932;2022-10-03T15:21:49;100587.88;;;15.36;94.65
10646;BME280;5371;49.782;9.932;2022-10-03T15:24:19;100588.84;;;15.35;95.20
10646;BME280;5371;49.782;9.932;2022-10-03T15:26:52;100588.00;;;15.34;95.02
10646;BME280;5371;49.782;9.932;2022-10-03T15:29:22;100584.06;;;15.13;95.94
10646;BME280;5371;49.782;9.932;2022-10-03T15:31:50;100590.84;;;15.03;96.05
10646;BME280;5371;49.782;9.932;2022-10-03T15:34:22;100589.88;;;14.91;96.76
10646;BME280;5371;49.782;9.932;2022-10-03T15:36:53;100584.97;;;14.85;97.87
10646;BME280;5371;49.782;9.932;2022-10-03T15:39:25;100586.66;;;14.86;97.05
10646;BME280;5371;49.782;9.932;2022-10-03T15:41:55;100592.59;;;14.90;97.11
10646;BME280;5371;49.782;9.932;2022-10-03T15:44:31;100590.63;;;14.79;97.77
10646;BME280;5371;49.782;9.932;2022-10-03T15:47:06;100594.19;;;14.78;98.55
10646;BME280;5371;49.782;9.932;2022-10-03T15:49:37;100595.41;;;14.73;99.41
10646;BME280;5371;49.782;9.932;2022-10-03T15:52:11;100584.31;;;14.68;99.45
10646;BME280;5371;49.782;9.932;2022-10-03T15:54:42;100583.84;;;14.61;99.19
10646;BME280;5371;49.782;9.932;2022-10-03T15:57:16;100588.44;;;14.57;100.00
10646;BME280;5371;49.782;9.932;2022-10-03T15:59:50;100589.41;;;14.56;99.57
10646;BME280;5371;49.782;9.932;2022-10-03T16:02:25;100588.75;;;14.53;100.00
10646;BME280;5371;49.782;9.932;2022-10-03T16:04:56;100591.53;;;14.50;100.00
10646;BME280;5371;49.782;9.932;2022-10-03T16:07:28;100591.84;;;14.45;100.00
10646;BME280;5371;49.782;9.932;2022-10-03T16:10:10;100590.13;;;14.44;100.00
10646;BME280;5371;49.782;9.932;2022-10-03T16:12:55;100587.13;;;14.50;100.00
10646;BME280;5371;49.782;9.932;2022-10-03T16:15:36;100583.00;;;14.46;100.00
10646;BME280;5371;49.782;9.932;2022-10-03T16:18:10;100582.44;;;14.41;100.00
10646;BME280;5371;49.782;9.932;2022-10-03T16:20:58;100578.44;;;14.34;100.00
10646;BME280;5371;49.782;9.932;2022-10-03T16:23:29;100581.25;;;14.31;100.00
10646;BME280;5371;49.782;9.932;2022-10-03T16:26:01;100584.09;;;14.28;100.00
10646;BME280;5371;49.782;9.932;2022-10-03T16:28:36;100578.03;;;14.12;100.00
10646;BME280;5371;49.782;9.932;2022-10-03T16:31:13;100578.22;;;14.09;100.00
10646;BME280;5371;49.782;9.932;2022-10-03T16:33:48;100577.63;;;14.04;100.00
10646;BME280;5371;49.782;9.932;2022-10-03T16:36:17;100575.94;;;14.03;100.00
10646;BME280;5371;49.782;9.932;2022-10-03T16:38:53;100578.78;;;14.00;100.00
10646;BME280;5371;49.782;9.932;2022-10-03T16:41:25;100573.00;;;13.93;100.00
10646;BME280;5371;49.782;9.932;2022-10-03T16:43:57;100577.25;;;13.96;100.00
10646;BME280;5371;49.782;9.932;2022-10-03T16:46:30;100570.13;;;13.98;100.00
10646;BME280;5371;49.782;9.932;2022-10-03T16:49:00;100564.31;;;13.93;100.00
10646;BME280;5371;49.782;9.932;2022-10-03T16:51:54;100564.31;;;13.93;100.00
10646;BME280;5371;49.782;9.932;2022-10-03T16:54:26;100566.25;;;13.89;100.00
10646;BME280;5371;49.782;9.932;2022-10-03T16:56:58;100572.03;;;13.80;100.00
10646;BME280;5371;49.782;9.932;2022-10-03T16:59:27;100570.19;;;13.82;100.00
10646;BME280;5371;49.782;9.932;2022-10-03T17:02:00;100568.00;;;13.74;100.00